This is the latest recevied weather packets stored in our database for station/object LZ1BAB-WX. If no packets are shown the sender has not sent any weather packets the latest 1 day(s).
| Time | Temp. | Humidity | Pressure | Rain* | Wind** | Luminosity | Snow |
|---|---|---|---|---|---|---|---|
| 1778042826 | 7.78° C | 91% | 1016.8 hPa | 0 mm | - | 91 W/m² | - |
| 1778042225 | 7.22° C | 92% | 1016.8 hPa | 0 mm | - | 76 W/m² | - |
| 1778041145 | 6.11° C | 94% | 1016.8 hPa | 0 mm | - | 54 W/m² | - |
| 1778040665 | 5.56° C | 96% | 1016.8 hPa | 0 mm | - | 47 W/m² | - |
| 1778040545 | 5.56° C | 96% | 1016.7 hPa | 0 mm | - | 45 W/m² | - |
| 1778040425 | 5.56° C | 97% | 1016.8 hPa | 0 mm | - | 43 W/m² | - |
| 1778040305 | 5° C | 97% | 1017 hPa | 0 mm | - | 41 W/m² | - |
| 1778040065 | 5° C | 97% | 1016.6 hPa | 0 mm | - | 36 W/m² | - |
| 1778039945 | 5° C | 97% | 1017 hPa | 0 mm | - | 35 W/m² | - |
| 1778039828 | 4.44° C | 98% | 1016.8 hPa | 0 mm | - | 32 W/m² | - |
| 1778039706 | 4.44° C | 98% | 1016.7 hPa | 0 mm | - | 26 W/m² | - |
| 1778039586 | 4.44° C | 98% | 1016.8 hPa | 0 mm | - | 28 W/m² | - |
| 1778039465 | 4.44° C | 98% | 1016.7 hPa | 0 mm | - | 26 W/m² | - |
| 1778039345 | 4.44° C | 98% | 1016.7 hPa | 0 mm | - | 24 W/m² | - |
| 1778039225 | 4.44° C | 98% | 1016.8 hPa | 0 mm | - | 23 W/m² | - |
| 1778039106 | 4.44° C | 98% | 1016.7 hPa | 0 mm | - | 22 W/m² | - |
| 1778038986 | 3.89° C | 98% | 1016.8 hPa | 0 mm | - | 18 W/m² | - |
| 1778038865 | 3.89° C | 98% | 1016.8 hPa | 0 mm | - | 17 W/m² | - |
| 1778038745 | 3.89° C | 98% | 1016.7 hPa | 0 mm | - | 16 W/m² | - |
| 1778038625 | 3.89° C | 98% | 1016.8 hPa | 0 mm | - | 15 W/m² | - |
| 1778038386 | 3.89° C | 98% | 1016.7 hPa | 0 mm | - | 12 W/m² | - |
| 1778038266 | 3.89° C | 98% | 1016.6 hPa | 0 mm | - | 11 W/m² | - |
| 1778038026 | 3.89° C | 98% | 1016.7 hPa | 0 mm | - | 9 W/m² | - |
| 1778037906 | 3.89° C | 97% | 1016.6 hPa | 0 mm | - | 9 W/m² | - |
| 1778037665 | 3.89° C | 97% | 1016.5 hPa | 0 mm | - | 7 W/m² | - |
* Rain latest hour (hover to see other rain measurements)
** Current wind speed in m/s (hover to see current wind gust speed)